Time;durP1;ratioP1;P1;durP2;ratioP2;P2;SDS_P1;SDS_P2;PMS_P1;PMS_P2;Temp;Humidity;BMP_temperature;BMP_pressure;BME280_temperature;BME280_humidity;BME280_pressure;Samples;Min_cycle;Max_cycle;Signal;HPM_P1;HPM_P2
2022/08/02 00:01:44;;;;;;;3.17;0.80;;;21.20;95.30;;;;;;5133097;27;20035;-76
2022/08/02 00:04:10;;;;;;;4.07;1.20;;;21.20;95.40;;;;;;5133900;27;20030;-76
2022/08/02 00:06:36;;;;;;;2.55;0.82;;;21.10;95.50;;;;;;5131801;27;20027;-76
2022/08/02 00:09:03;;;;;;;5.10;1.30;;;21.20;95.60;;;;;;5131638;27;20031;-76
2022/08/02 00:11:28;;;;;;;2.47;0.90;;;21.10;95.60;;;;;;5131308;27;20068;-77
2022/08/02 00:13:54;;;;;;;3.92;1.48;;;21.10;95.60;;;;;;5129328;27;20027;-75
2022/08/02 00:16:20;;;;;;;1.77;1.05;;;21.00;95.60;;;;;;5129086;27;20034;-76
2022/08/02 00:18:45;;;;;;;3.78;1.20;;;21.00;95.70;;;;;;5133375;27;20035;-77
2022/08/02 00:21:11;;;;;;;3.08;1.33;;;20.90;95.70;;;;;;5131194;27;20043;-76
2022/08/02 00:23:36;;;;;;;5.43;1.30;;;20.80;95.80;;;;;;5123119;27;20088;-76
2022/08/02 00:26:01;;;;;;;2.92;1.30;;;20.80;95.80;;;;;;5132246;27;20035;-78
2022/08/02 00:28:28;;;;;;;5.65;1.48;;;20.70;95.90;;;;;;5132925;27;20024;-76
2022/08/02 00:30:55;;;;;;;2.35;1.58;;;20.60;96.00;;;;;;5130760;27;20055;-76
2022/08/02 00:33:21;;;;;;;1.58;0.90;;;20.60;96.10;;;;;;5130444;27;20027;-77
2022/08/02 00:35:46;;;;;;;3.83;1.02;;;20.60;96.00;;;;;;5130813;27;20042;-77
2022/08/02 00:38:12;;;;;;;4.97;1.20;;;20.60;96.00;;;;;;5129870;27;20026;-77
2022/08/02 00:40:38;;;;;;;5.20;1.20;;;20.60;96.10;;;;;;5125227;27;20043;-76
2022/08/02 00:43:06;;;;;;;6.60;1.52;;;20.60;95.80;;;;;;5132549;27;20525;-77
2022/08/02 00:45:33;;;;;;;2.30;0.93;;;20.50;95.80;;;;;;5129945;27;20118;-77
2022/08/02 00:47:59;;;;;;;2.67;1.73;;;20.50;95.90;;;;;;5132435;27;20027;-77
2022/08/02 00:50:25;;;;;;;4.05;1.00;;;20.50;95.80;;;;;;5130722;27;20098;-78
2022/08/02 00:52:51;;;;;;;3.08;1.08;;;20.50;95.80;;;;;;5123284;27;20031;-76
2022/08/02 00:55:17;;;;;;;1.50;0.85;;;20.50;95.60;;;;;;5132497;27;20384;-77
2022/08/02 00:57:42;;;;;;;2.55;1.17;;;20.50;95.50;;;;;;5127889;27;20042;-76
2022/08/02 01:00:08;;;;;;;3.03;1.27;;;20.50;95.60;;;;;;5125172;27;20049;-77
2022/08/02 01:02:34;;;;;;;2.30;1.10;;;20.50;95.50;;;;;;5131236;27;20488;-78
2022/08/02 01:05:00;;;;;;;1.90;0.90;;;20.50;95.50;;;;;;5131803;27;20072;-77
2022/08/02 01:07:25;;;;;;;2.45;1.10;;;20.40;95.20;;;;;;5131843;27;20031;-77
2022/08/02 01:09:51;;;;;;;2.10;0.88;;;20.40;95.30;;;;;;5132033;27;20023;-76
2022/08/02 01:12:16;;;;;;;1.35;1.20;;;20.40;95.20;;;;;;5130294;27;20408;-77
2022/08/02 01:14:45;;;;;;;2.38;1.05;;;20.40;95.10;;;;;;5131340;27;20070;-76
2022/08/02 01:17:33;;;;;;;3.03;1.15;;;20.40;95.00;;;;;;5129123;27;20037;-76
2022/08/02 01:20:06;;;;;;;3.58;1.60;;;20.30;95.00;;;;;;5123907;27;20044;-77
2022/08/02 01:22:48;;;;;;;2.38;1.00;;;20.30;94.90;;;;;;5132120;27;20235;-76
2022/08/02 01:25:47;;;;;;;2.28;0.98;;;20.20;94.90;;;;;;5131903;27;20023;-77
2022/08/02 01:28:34;;;;;;;2.63;1.00;;;20.20;95.00;;;;;;5132009;27;20160;-76
2022/08/02 01:31:15;;;;;;;2.30;0.93;;;20.20;94.70;;;;;;5130003;27;20062;-77
2022/08/02 01:33:47;;;;;;;2.47;1.10;;;20.00;94.80;;;;;;5128852;27;20079;-77
2022/08/02 01:36:17;;;;;;;4.88;1.42;;;20.10;94.90;;;;;;5123556;27;20035;-77
2022/08/02 01:38:47;;;;;;;3.40;1.45;;;20.10;94.90;;;;;;5129111;27;20362;-76
2022/08/02 01:41:18;;;;;;;2.92;1.33;;;20.10;95.00;;;;;;5129758;27;20102;-77
2022/08/02 01:43:44;;;;;;;5.65;1.83;;;20.10;94.90;;;;;;5130956;27;20023;-76
2022/08/02 01:46:12;;;;;;;2.15;1.35;;;20.10;94.80;;;;;;5115674;27;20042;-76
2022/08/02 01:48:40;;;;;;;3.40;1.17;;;20.00;95.00;;;;;;5126817;27;20042;-76
2022/08/02 01:51:09;;;;;;;3.42;1.20;;;19.90;95.20;;;;;;5130916;27;20033;-76
2022/08/02 01:53:37;;;;;;;2.80;1.10;;;19.80;95.10;;;;;;5134700;27;20050;-77
2022/08/02 01:56:06;;;;;;;2.05;1.25;;;19.80;95.10;;;;;;5133835;27;20034;-75
2022/08/02 01:58:36;;;;;;;2.28;1.10;;;19.80;95.10;;;;;;5130313;27;20030;-75
2022/08/02 02:01:04;;;;;;;3.55;1.20;;;19.90;95.30;;;;;;5130229;27;20023;-74
2022/08/02 02:03:32;;;;;;;2.20;1.10;;;19.90;95.10;;;;;;5130607;27;20046;-75
2022/08/02 02:06:00;;;;;;;1.80;0.82;;;19.90;94.90;;;;;;5129834;27;20026;-75
2022/08/02 02:08:34;;;;;;;2.65;1.45;;;19.90;95.00;;;;;;5126525;27;20369;-76
2022/08/02 02:11:01;;;;;;;2.42;1.05;;;19.90;95.20;;;;;;5123102;27;20106;-76
2022/08/02 02:13:27;;;;;;;5.80;1.10;;;19.90;95.00;;;;;;5128065;27;20630;-75
2022/08/02 02:15:54;;;;;;;3.88;1.33;;;19.90;94.80;;;;;;5116975;27;20094;-76
2022/08/02 02:18:23;;;;;;;3.08;1.00;;;19.90;94.70;;;;;;5124472;27;20039;-75
2022/08/02 02:20:49;;;;;;;4.07;1.35;;;19.90;94.70;;;;;;5129622;27;20063;-76
2022/08/02 02:23:16;;;;;;;3.47;1.10;;;19.90;94.70;;;;;;5130524;27;20067;-77
2022/08/02 02:25:42;;;;;;;2.97;1.10;;;19.80;94.60;;;;;;5124436;27;20369;-76
2022/08/02 02:28:23;;;;;;;3.58;2.03;;;19.90;94.60;;;;;;5117702;27;20058;-77
2022/08/02 02:30:53;;;;;;;5.25;1.50;;;19.90;94.60;;;;;;5127085;28;20501;-76
2022/08/02 02:33:21;;;;;;;3.30;1.10;;;19.90;94.60;;;;;;5130373;27;20107;-76
2022/08/02 02:35:50;;;;;;;4.65;1.15;;;19.80;94.60;;;;;;5124072;27;20101;-76
2022/08/02 02:38:18;;;;;;;6.53;1.35;;;19.80;94.70;;;;;;5123835;28;20034;-76
2022/08/02 02:40:46;;;;;;;2.65;1.30;;;19.80;94.90;;;;;;5129012;28;20019;-78
2022/08/02 02:43:12;;;;;;;2.92;1.52;;;19.80;95.10;;;;;;5129988;27;20665;-77
2022/08/02 02:45:39;;;;;;;2.53;1.08;;;19.80;95.10;;;;;;5128989;27;20054;-76
2022/08/02 02:48:06;;;;;;;2.67;1.17;;;19.80;95.20;;;;;;5130587;27;20373;-76
2022/08/02 02:50:32;;;;;;;6.47;1.10;;;19.70;95.30;;;;;;5129089;27;20609;-78
2022/08/02 02:52:58;;;;;;;1.85;0.90;;;19.70;95.50;;;;;;5128816;28;20473;-76
2022/08/02 02:55:26;;;;;;;4.43;1.98;;;19.70;95.70;;;;;;5128999;28;20038;-76
2022/08/02 02:57:52;;;;;;;3.05;1.13;;;19.60;95.80;;;;;;5129546;27;20027;-76
2022/08/02 03:01:26;;;;;;;3.22;1.30;;;19.60;95.70;;;;;;5126017;28;20035;-78
2022/08/02 03:03:03;;;;;;;4.45;1.08;;;19.60;95.70;;;;;;5122328;28;20044;-76
2022/08/02 03:05:29;;;;;;;3.83;1.23;;;19.50;95.80;;;;;;5129083;28;20035;-76
2022/08/02 03:07:54;;;;;;;7.43;1.70;;;19.50;95.80;;;;;;5128069;28;20057;-77
2022/08/02 03:10:20;;;;;;;5.65;1.35;;;19.40;95.10;;;;;;5127322;27;20426;-76
2022/08/02 03:12:45;;;;;;;5.38;1.42;;;19.40;95.30;;;;;;5131342;27;20039;-76
2022/08/02 03:15:12;;;;;;;2.63;0.88;;;19.40;95.20;;;;;;5128947;27;20027;-77
2022/08/02 03:17:44;;;;;;;3.00;1.08;;;19.40;95.10;;;;;;5133303;27;20019;-77
2022/08/02 03:20:15;;;;;;;2.47;1.45;;;19.30;95.10;;;;;;5132955;27;20027;-77
2022/08/02 03:22:41;;;;;;;3.97;1.35;;;19.40;95.10;;;;;;5124421;27;20050;-76
2022/08/02 03:25:09;;;;;;;5.00;1.20;;;19.40;95.20;;;;;;5132893;27;20035;-78
2022/08/02 03:27:34;;;;;;;3.75;1.13;;;19.40;95.10;;;;;;5131095;27;20035;-76
2022/08/02 03:30:00;;;;;;;3.30;1.33;;;19.40;95.10;;;;;;5133034;27;20023;-76
2022/08/02 03:32:26;;;;;;;2.85;0.93;;;19.40;95.10;;;;;;5130050;27;20118;-76
2022/08/02 03:34:51;;;;;;;2.22;0.88;;;19.40;95.20;;;;;;5129506;27;20027;-76
2022/08/02 03:37:17;;;;;;;3.13;1.50;;;19.40;94.80;;;;;;5124151;27;20036;-77
2022/08/02 03:39:43;;;;;;;5.15;1.17;;;19.40;94.90;;;;;;5131432;27;20087;-77
2022/08/02 03:42:10;;;;;;;4.80;1.70;;;19.40;95.00;;;;;;5132286;27;20035;-76
2022/08/02 03:44:38;;;;;;;2.65;1.10;;;19.40;95.00;;;;;;5132711;27;20027;-77
2022/08/02 03:47:04;;;;;;;3.08;1.15;;;19.30;94.90;;;;;;5131546;27;20535;-77
2022/08/02 03:49:30;;;;;;;2.40;1.20;;;19.30;95.00;;;;;;5129140;27;20027;-76
2022/08/02 03:51:57;;;;;;;4.22;1.50;;;19.20;94.90;;;;;;5131270;27;20521;-77
2022/08/02 03:54:23;;;;;;;7.70;1.67;;;19.20;94.90;;;;;;5133588;27;20080;-77
2022/08/02 03:56:48;;;;;;;8.18;1.40;;;19.20;95.10;;;;;;5129516;27;20031;-76
2022/08/02 03:59:14;;;;;;;4.80;1.98;;;19.20;95.30;;;;;;5127088;27;20039;-77
2022/08/02 04:01:40;;;;;;;5.03;1.50;;;19.20;95.00;;;;;;5125790;27;20023;-77
2022/08/02 04:04:06;;;;;;;7.13;1.98;;;19.10;95.20;;;;;;5133312;27;20031;-77
2022/08/02 04:06:32;;;;;;;4.35;1.40;;;19.10;95.30;;;;;;5132123;27;20236;-78
2022/08/02 04:08:58;;;;;;;4.18;1.48;;;19.10;95.30;;;;;;5132645;27;20559;-76
2022/08/02 04:11:29;;;;;;;2.78;1.10;;;19.10;95.30;;;;;;5128857;27;20106;-78
2022/08/02 04:13:55;;;;;;;4.45;1.67;;;19.00;95.40;;;;;;5129844;27;20031;-78
2022/08/02 04:16:33;;;;;;;2.92;1.00;;;18.90;95.50;;;;;;5119771;27;20069;-77
2022/08/02 04:19:02;;;;;;;5.88;1.40;;;18.80;95.50;;;;;;5130414;27;20028;-77
2022/08/02 04:21:32;;;;;;;7.25;1.95;;;18.80;95.50;;;;;;5126723;27;20077;-77
2022/08/02 04:24:01;;;;;;;4.80;1.50;;;18.80;95.60;;;;;;5124624;27;20075;-77
2022/08/02 04:26:27;;;;;;;4.28;1.50;;;18.70;95.80;;;;;;5124238;27;20036;-77
2022/08/02 04:28:53;;;;;;;3.65;1.40;;;18.70;95.70;;;;;;5116193;27;20034;-77
2022/08/02 04:31:20;;;;;;;4.28;1.70;;;18.70;95.70;;;;;;5122518;27;20035;-77
2022/08/02 04:33:46;;;;;;;6.35;1.70;;;18.70;95.80;;;;;;5125442;27;20051;-77
2022/08/02 04:36:13;;;;;;;4.25;1.17;;;18.70;95.60;;;;;;5122127;27;20066;-77
2022/08/02 04:38:40;;;;;;;3.80;1.08;;;18.70;95.70;;;;;;5126477;27;20437;-76
2022/08/02 04:41:06;;;;;;;3.00;1.17;;;18.70;95.50;;;;;;5123852;27;20031;-76
2022/08/02 04:43:32;;;;;;;4.07;1.42;;;18.80;95.70;;;;;;5131470;27;20099;-76
2022/08/02 04:45:57;;;;;;;5.72;1.25;;;18.80;95.60;;;;;;5130798;27;20031;-75
2022/08/02 04:48:23;;;;;;;1.88;1.17;;;18.90;95.40;;;;;;5129656;27;20036;-77
2022/08/02 04:50:49;;;;;;;7.40;2.25;;;19.00;95.40;;;;;;5132306;27;20587;-76
2022/08/02 04:53:15;;;;;;;3.72;0.90;;;19.00;95.20;;;;;;5132679;27;20040;-77
2022/08/02 04:55:41;;;;;;;3.22;1.20;;;19.00;95.10;;;;;;5132062;27;20019;-76
2022/08/02 04:58:07;;;;;;;3.47;1.30;;;19.10;94.90;;;;;;5124773;27;20034;-76
2022/08/02 05:00:33;;;;;;;6.25;1.42;;;19.10;94.70;;;;;;5114498;27;20024;-76
2022/08/02 05:03:00;;;;;;;5.13;2.10;;;19.20;94.60;;;;;;5113367;27;20034;-76
2022/08/02 05:05:26;;;;;;;4.95;1.42;;;19.30;94.60;;;;;;5119206;27;20023;-77
2022/08/02 05:07:52;;;;;;;3.95;1.08;;;19.30;94.30;;;;;;5121691;27;20031;-76
2022/08/02 05:10:18;;;;;;;3.10;1.20;;;19.40;94.20;;;;;;5121233;27;20115;-76
2022/08/02 05:12:43;;;;;;;2.63;1.05;;;19.40;93.80;;;;;;5121480;27;20027;-76
2022/08/02 05:15:12;;;;;;;4.95;1.75;;;19.40;93.80;;;;;;5125098;27;20099;-76
2022/08/02 05:17:37;;;;;;;6.72;1.65;;;19.50;94.00;;;;;;5114862;27;20030;-76
2022/08/02 05:20:04;;;;;;;5.60;1.67;;;19.50;93.70;;;;;;5118941;27;20023;-75
2022/08/02 05:22:30;;;;;;;3.58;1.63;;;19.60;93.60;;;;;;5122586;27;20047;-76
2022/08/02 05:24:55;;;;;;;3.40;1.20;;;19.70;93.80;;;;;;5119443;27;20098;-77
2022/08/02 05:27:20;;;;;;;3.35;1.23;;;19.80;93.80;;;;;;5121999;27;20028;-75
2022/08/02 05:29:46;;;;;;;10.70;1.77;;;19.90;93.90;;;;;;5122050;27;20031;-75
2022/08/02 05:32:11;;;;;;;7.18;1.50;;;20.00;93.30;;;;;;5125142;27;20103;-77
2022/08/02 05:34:37;;;;;;;2.25;0.90;;;20.00;93.20;;;;;;5123188;27;20416;-77
2022/08/02 05:37:03;;;;;;;4.55;1.20;;;20.00;92.80;;;;;;5127761;27;20050;-76
2022/08/02 05:39:28;;;;;;;1.58;1.00;;;20.10;92.90;;;;;;5120049;27;20039;-72
2022/08/02 05:41:54;;;;;;;2.95;1.15;;;20.20;93.20;;;;;;5122947;27;20038;-71
2022/08/02 05:44:19;;;;;;;3.33;0.73;;;20.20;92.30;;;;;;5109752;27;20051;-75
2022/08/02 05:46:44;;;;;;;2.53;1.10;;;20.20;92.50;;;;;;5121871;27;20031;-75
2022/08/02 05:49:10;;;;;;;2.45;1.15;;;20.30;92.40;;;;;;5126613;27;20031;-75
2022/08/02 05:51:37;;;;;;;3.30;1.05;;;20.30;92.30;;;;;;5124874;27;20031;-74
2022/08/02 05:54:22;;;;;;;2.60;0.98;;;20.20;92.40;;;;;;5127958;27;20035;-73
2022/08/02 05:57:05;;;;;;;2.47;1.08;;;20.30;92.80;;;;;;5127513;27;20034;-74
2022/08/02 05:59:32;;;;;;;5.85;1.20;;;20.40;92.50;;;;;;5125622;27;20019;-74
2022/08/02 06:02:09;;;;;;;4.20;1.38;;;20.50;92.60;;;;;;5121647;27;20038;-75
2022/08/02 06:04:55;;;;;;;4.00;1.30;;;20.50;92.10;;;;;;5114925;27;20454;-75
2022/08/02 06:07:22;;;;;;;4.55;1.38;;;20.50;92.50;;;;;;5123755;27;20030;-74
2022/08/02 06:09:49;;;;;;;6.82;1.33;;;20.50;92.30;;;;;;5122220;27;20026;-75
2022/08/02 06:12:16;;;;;;;4.43;1.50;;;20.50;92.20;;;;;;5122859;27;20043;-74
2022/08/02 06:14:42;;;;;;;5.32;1.40;;;20.60;92.30;;;;;;5126754;27;20058;-75
2022/08/02 06:17:08;;;;;;;5.95;1.48;;;20.50;92.30;;;;;;5117722;27;20023;-75
2022/08/02 06:19:37;;;;;;;4.22;1.20;;;20.40;92.50;;;;;;5127726;27;20069;-77
2022/08/02 06:22:13;;;;;;;2.65;1.20;;;20.40;92.60;;;;;;5126347;27;20485;-75
2022/08/02 06:24:42;;;;;;;4.00;1.33;;;20.50;92.60;;;;;;5122920;27;20106;-76
2022/08/02 06:27:09;;;;;;;4.18;1.55;;;20.70;93.00;;;;;;5124553;28;20112;-75
2022/08/02 06:29:35;;;;;;;2.80;1.27;;;20.80;92.60;;;;;;5125705;27;20066;-73
2022/08/02 06:32:02;;;;;;;6.30;1.80;;;20.90;92.30;;;;;;5127625;27;20046;-74
2022/08/02 06:34:27;;;;;;;4.43;1.13;;;20.90;91.90;;;;;;5124455;27;20087;-75
2022/08/02 06:37:05;;;;;;;3.33;1.17;;;20.90;91.90;;;;;;5107411;28;20384;-75
2022/08/02 06:39:36;;;;;;;4.63;0.85;;;21.10;91.40;;;;;;5122157;28;20031;-75
2022/08/02 06:42:09;;;;;;;3.55;0.80;;;21.10;91.20;;;;;;5124061;28;20042;-75
2022/08/02 06:44:37;;;;;;;4.18;1.10;;;21.20;91.50;;;;;;5126806;27;20030;-74
2022/08/02 06:47:03;;;;;;;5.05;1.98;;;21.30;90.90;;;;;;5122330;27;20357;-75
2022/08/02 06:49:29;;;;;;;3.95;1.45;;;21.50;91.00;;;;;;5131605;27;20031;-75
2022/08/02 06:51:54;;;;;;;5.80;1.15;;;21.40;90.80;;;;;;5130953;27;20031;-75
2022/08/02 06:54:23;;;;;;;4.78;1.10;;;21.50;90.50;;;;;;5129499;27;20101;-74
2022/08/02 06:56:48;;;;;;;2.65;1.00;;;21.60;90.80;;;;;;5123732;27;20031;-75
2022/08/02 06:59:14;;;;;;;5.03;1.30;;;21.70;91.10;;;;;;5131683;27;20027;-76
2022/08/02 07:01:39;;;;;;;3.22;1.30;;;21.80;90.80;;;;;;5124194;27;20465;-75
2022/08/02 07:04:05;;;;;;;2.38;1.33;;;21.90;90.40;;;;;;5125455;27;20043;-76
2022/08/02 07:06:30;;;;;;;3.42;1.00;;;21.90;90.60;;;;;;5130376;27;20114;-76
2022/08/02 07:08:56;;;;;;;2.45;0.80;;;21.90;90.00;;;;;;5123162;27;20015;-75
2022/08/02 07:11:22;;;;;;;3.92;1.20;;;21.90;90.70;;;;;;5128041;27;20485;-75
2022/08/02 07:13:48;;;;;;;6.82;1.05;;;22.00;90.10;;;;;;5128240;27;20052;-75
2022/08/02 07:16:14;;;;;;;2.85;1.05;;;22.00;90.30;;;;;;5129718;27;20031;-74
2022/08/02 07:18:39;;;;;;;6.13;0.90;;;22.10;89.80;;;;;;5130701;27;20035;-76
2022/08/02 07:21:05;;;;;;;5.35;1.27;;;22.20;90.00;;;;;;5128726;27;20113;-75
2022/08/02 07:23:31;;;;;;;5.22;1.30;;;22.30;89.30;;;;;;5128327;27;20031;-74
2022/08/02 07:25:56;;;;;;;3.00;0.82;;;22.40;89.20;;;;;;5124858;27;20038;-75
2022/08/02 07:28:22;;;;;;;3.92;1.08;;;22.50;88.00;;;;;;5126742;27;20031;-75
2022/08/02 07:30:47;;;;;;;4.45;1.08;;;22.70;87.80;;;;;;5119519;27;20024;-75
2022/08/02 07:33:13;;;;;;;2.85;1.10;;;22.80;87.20;;;;;;5117431;27;20031;-74
2022/08/02 07:35:40;;;;;;;3.28;0.90;;;23.00;89.20;;;;;;5122408;27;20031;-75
2022/08/02 07:38:06;;;;;;;8.27;1.23;;;23.10;87.60;;;;;;5132355;27;20027;-74
2022/08/02 07:40:31;;;;;;;3.15;0.90;;;23.10;88.30;;;;;;5130556;27;20038;-74
2022/08/02 07:42:57;;;;;;;2.30;1.00;;;23.20;88.40;;;;;;5131605;27;20035;-74
2022/08/02 07:45:23;;;;;;;4.53;0.82;;;23.30;88.30;;;;;;5130389;27;20035;-70
2022/08/02 07:47:50;;;;;;;5.82;1.55;;;23.50;88.20;;;;;;5129615;27;20027;-74
2022/08/02 07:50:17;;;;;;;4.90;1.10;;;23.60;86.00;;;;;;5129739;27;20053;-76
2022/08/02 07:52:44;;;;;;;6.03;1.52;;;23.60;86.80;;;;;;5131134;27;20039;-74
2022/08/02 07:55:11;;;;;;;3.08;0.98;;;23.70;88.10;;;;;;5131549;27;20026;-75
2022/08/02 07:57:38;;;;;;;13.00;1.33;;;23.80;87.60;;;;;;5130148;27;20476;-75
2022/08/02 08:00:05;;;;;;;2.67;0.95;;;24.00;86.10;;;;;;5122658;27;20059;-76
2022/08/02 08:02:31;;;;;;;5.35;0.93;;;24.10;86.20;;;;;;5131541;27;20503;-74
2022/08/02 08:04:57;;;;;;;4.45;1.10;;;24.10;86.80;;;;;;5132248;27;20031;-75
2022/08/02 08:07:23;;;;;;;6.82;1.10;;;24.20;87.60;;;;;;5131207;27;20049;-75
2022/08/02 08:09:49;;;;;;;3.90;0.90;;;24.30;88.00;;;;;;5132147;27;20058;-74
2022/08/02 08:12:16;;;;;;;2.30;0.88;;;24.40;86.70;;;;;;5131257;27;20035;-76
2022/08/02 08:14:41;;;;;;;3.72;1.10;;;24.50;86.60;;;;;;5128021;27;20038;-74
2022/08/02 08:17:07;;;;;;;3.00;0.90;;;24.60;85.50;;;;;;5130539;27;20392;-75
2022/08/02 08:19:33;;;;;;;3.83;0.95;;;24.60;86.10;;;;;;5130172;27;20098;-75
2022/08/02 08:21:59;;;;;;;3.60;0.95;;;24.70;84.70;;;;;;5123124;27;20041;-75
2022/08/02 08:24:25;;;;;;;3.78;1.05;;;24.80;83.70;;;;;;5131319;27;20131;-75
2022/08/02 08:26:51;;;;;;;2.85;0.85;;;24.90;85.30;;;;;;5131077;27;20027;-76
2022/08/02 08:29:17;;;;;;;8.00;1.08;;;25.00;84.70;;;;;;5131301;27;20499;-74
2022/08/02 08:31:42;;;;;;;5.10;1.00;;;25.20;84.40;;;;;;5130813;27;20043;-74
2022/08/02 08:34:07;;;;;;;3.00;1.05;;;25.20;82.00;;;;;;5126100;27;20059;-73
2022/08/02 08:36:33;;;;;;;2.83;1.00;;;25.30;82.40;;;;;;5130589;27;20019;-76
2022/08/02 08:38:59;;;;;;;4.22;1.00;;;25.40;82.50;;;;;;5130358;27;20031;-75
2022/08/02 08:41:24;;;;;;;7.95;1.00;;;25.50;82.20;;;;;;5131189;27;20038;-76
2022/08/02 08:43:50;;;;;;;5.07;1.00;;;25.60;81.60;;;;;;5127732;27;20122;-75
2022/08/02 08:46:29;;;;;;;1.88;0.70;;;25.60;82.40;;;;;;5123404;27;20046;-75
2022/08/02 08:49:05;;;;;;;8.75;1.05;;;25.60;81.50;;;;;;5131198;27;20384;-75
2022/08/02 08:51:40;;;;;;;4.00;0.70;;;25.70;82.20;;;;;;5130888;27;20084;-75
2022/08/02 08:54:08;;;;;;;3.58;0.80;;;25.70;81.90;;;;;;5124543;27;20032;-74
2022/08/02 08:56:35;;;;;;;3.45;1.02;;;25.90;84.70;;;;;;5121544;27;20134;-75
2022/08/02 08:59:02;;;;;;;4.28;0.80;;;26.00;83.80;;;;;;5122009;27;20441;-76
2022/08/02 09:01:28;;;;;;;3.65;1.00;;;26.10;81.50;;;;;;5129253;27;20083;-75
2022/08/02 09:03:54;;;;;;;5.13;1.00;;;26.10;80.30;;;;;;5129409;27;20040;-75
2022/08/02 09:06:19;;;;;;;7.60;1.25;;;26.00;79.80;;;;;;5128464;27;20411;-75
2022/08/02 09:08:45;;;;;;;5.15;0.90;;;26.10;81.80;;;;;;5126854;27;20038;-76
2022/08/02 09:11:18;;;;;;;1.98;0.68;;;26.10;80.70;;;;;;5125217;27;20408;-77
2022/08/02 09:13:57;;;;;;;7.30;1.35;;;26.30;80.80;;;;;;5118525;27;20052;-75
2022/08/02 09:16:42;;;;;;;4.30;1.00;;;26.40;83.20;;;;;;5127583;27;20034;-79
2022/08/02 09:19:25;;;;;;;2.47;0.95;;;26.60;79.80;;;;;;5121520;27;20031;-79
2022/08/02 09:21:59;;;;;;;1.92;0.95;;;26.70;79.00;;;;;;5128313;27;20130;-78
2022/08/02 09:24:25;;;;;;;2.05;1.00;;;26.80;79.20;;;;;;5125811;27;20110;-79
2022/08/02 09:26:51;;;;;;;10.27;1.13;;;26.90;83.30;;;;;;5117829;27;20580;-78
2022/08/02 09:29:20;;;;;;;4.00;1.17;;;27.10;80.60;;;;;;5111886;27;20050;-78
2022/08/02 09:31:45;;;;;;;1.83;1.02;;;27.20;79.50;;;;;;5126000;27;20529;-79
2022/08/02 09:34:11;;;;;;;1.85;1.17;;;27.40;79.00;;;;;;5127407;27;20062;-78
2022/08/02 09:36:42;;;;;;;3.10;1.30;;;27.40;78.70;;;;;;5117314;27;20035;-78
2022/08/02 09:39:10;;;;;;;2.38;0.90;;;27.50;80.30;;;;;;5130528;27;20020;-78
2022/08/02 09:41:39;;;;;;;2.92;1.15;;;27.40;79.40;;;;;;5129550;27;20054;-78
2022/08/02 09:44:07;;;;;;;4.00;0.93;;;27.40;78.60;;;;;;5130514;27;20244;-78
2022/08/02 09:46:41;;;;;;;2.50;1.25;;;27.40;79.40;;;;;;5126627;27;20034;-79
2022/08/02 09:49:12;;;;;;;4.18;0.95;;;27.60;80.80;;;;;;5124910;27;20504;-79
2022/08/02 09:51:47;;;;;;;2.80;1.20;;;27.60;80.00;;;;;;5117389;27;20078;-79
2022/08/02 09:54:18;;;;;;;4.72;1.38;;;27.60;78.00;;;;;;5124449;27;20032;-78
2022/08/02 09:56:48;;;;;;;2.80;0.90;;;27.70;77.60;;;;;;5128168;27;20031;-78
2022/08/02 09:59:16;;;;;;;3.05;1.00;;;27.80;78.40;;;;;;5121314;27;20027;-78
2022/08/02 10:01:43;;;;;;;3.47;1.20;;;27.80;77.60;;;;;;5123512;27;20023;-78
2022/08/02 10:04:11;;;;;;;3.15;0.98;;;27.70;76.40;;;;;;5129300;27;20481;-78
2022/08/02 10:06:38;;;;;;;4.00;1.10;;;27.80;76.10;;;;;;5128218;27;20473;-77
2022/08/02 10:09:05;;;;;;;2.30;1.00;;;27.90;77.10;;;;;;5129806;27;20520;-78
2022/08/02 10:11:32;;;;;;;3.95;1.35;;;28.00;78.90;;;;;;5127978;27;20023;-78
2022/08/02 10:13:58;;;;;;;2.72;1.23;;;28.20;77.40;;;;;;5128679;27;20023;-78
2022/08/02 10:16:24;;;;;;;2.53;1.20;;;28.40;76.50;;;;;;5117283;27;20028;-77
2022/08/02 10:18:54;;;;;;;3.47;1.17;;;28.50;74.10;;;;;;5109252;27;20040;-78
2022/08/02 10:21:31;;;;;;;4.20;1.25;;;28.30;74.10;;;;;;5128339;27;20035;-78
2022/08/02 10:24:09;;;;;;;2.25;1.00;;;28.00;75.30;;;;;;5107961;28;20063;-78
2022/08/02 10:26:37;;;;;;;6.22;1.40;;;28.00;79.10;;;;;;5108666;28;20035;-79
2022/08/02 10:29:03;;;;;;;3.50;1.35;;;28.10;76.50;;;;;;5109631;28;20167;-78
2022/08/02 10:31:35;;;;;;;4.32;2.13;;;28.20;75.40;;;;;;5126254;28;20130;-79
2022/08/02 10:34:06;;;;;;;5.55;1.33;;;28.30;78.90;;;;;;5119515;28;20038;-77
2022/08/02 10:36:34;;;;;;;2.38;1.13;;;28.50;76.40;;;;;;5120769;27;20032;-78
2022/08/02 10:39:00;;;;;;;4.53;0.80;;;28.80;75.90;;;;;;5127523;27;20027;-79
2022/08/02 10:41:47;;;;;;;3.70;1.05;;;29.00;79.20;;;;;;5128427;27;20023;-79
2022/08/02 10:44:27;;;;;;;2.45;1.10;;;29.20;72.90;;;;;;5125484;28;20366;-77
2022/08/02 10:47:24;;;;;;;2.13;0.90;;;29.50;73.10;;;;;;5125514;28;20023;-79
2022/08/02 10:49:51;;;;;;;2.58;1.00;;;29.70;73.40;;;;;;5113323;28;20468;-78
2022/08/02 10:52:19;;;;;;;3.22;1.00;;;29.80;74.10;;;;;;5127672;28;20121;-78
2022/08/02 10:54:56;;;;;;;3.05;1.20;;;30.00;73.80;;;;;;5113109;27;20031;-79
2022/08/02 10:57:22;;;;;;;8.77;1.63;;;30.10;70.10;;;;;;5118040;28;20035;-79
2022/08/02 11:00:00;;;;;;;2.88;1.52;;;30.20;71.10;;;;;;5124140;28;20045;-78
2022/08/02 11:02:46;;;;;;;2.30;1.38;;;30.20;70.50;;;;;;5119220;27;20119;-78
2022/08/02 11:05:17;;;;;;;1.85;0.90;;;30.20;70.30;;;;;;5122385;28;20032;-77
2022/08/02 11:07:48;;;;;;;1.73;0.80;;;30.30;72.20;;;;;;5119351;28;20020;-78
2022/08/02 11:10:27;;;;;;;3.13;1.08;;;30.40;69.70;;;;;;5126361;28;20055;-78
2022/08/02 11:13:14;;;;;;;4.45;1.13;;;30.40;69.00;;;;;;5125048;27;20031;-78
2022/08/02 11:16:00;;;;;;;1.92;0.88;;;30.50;69.80;;;;;;5109545;28;20031;-79
2022/08/02 11:18:50;;;;;;;2.00;0.88;;;30.50;68.00;;;;;;5121558;28;20020;-78
2022/08/02 11:21:31;;;;;;;2.65;0.93;;;30.50;68.50;;;;;;5121061;28;20091;-78
2022/08/02 11:24:27;;;;;;;2.03;0.90;;;30.60;69.80;;;;;;5126436;27;20476;-79
2022/08/02 11:26:53;;;;;;;4.60;0.90;;;30.70;68.70;;;;;;5119322;27;20031;-78
2022/08/02 11:29:19;;;;;;;4.65;0.85;;;30.70;66.40;;;;;;5123447;27;20107;-79
2022/08/02 11:31:46;;;;;;;1.90;0.82;;;30.70;68.30;;;;;;5116091;27;20027;-80
2022/08/02 11:34:12;;;;;;;4.05;0.95;;;30.60;67.40;;;;;;5123194;27;20019;-79
2022/08/02 11:36:46;;;;;;;2.72;0.63;;;30.60;65.40;;;;;;5127226;27;20076;-78
2022/08/02 11:39:14;;;;;;;5.57;0.85;;;30.50;65.80;;;;;;5126188;27;20034;-78
2022/08/02 11:41:40;;;;;;;1.65;0.90;;;30.50;65.40;;;;;;5127634;27;20034;-78
2022/08/02 11:44:06;;;;;;;3.47;1.15;;;30.50;65.70;;;;;;5129583;27;20106;-77
2022/08/02 11:46:32;;;;;;;3.38;0.90;;;30.40;66.20;;;;;;5127702;27;20094;-79
2022/08/02 11:49:13;;;;;;;2.58;1.08;;;30.40;67.60;;;;;;5128061;27;20027;-79
2022/08/02 11:51:50;;;;;;;5.15;0.90;;;30.50;67.30;;;;;;5130745;27;20024;-77
2022/08/02 11:54:23;;;;;;;2.17;0.93;;;30.80;64.60;;;;;;5130885;27;20034;-77
2022/08/02 11:56:48;;;;;;;2.42;1.35;;;31.00;63.80;;;;;;5114568;27;20031;-79
2022/08/02 11:59:14;;;;;;;3.17;1.10;;;31.10;63.20;;;;;;5121637;27;20056;-76
2022/08/02 12:01:40;;;;;;;1.67;0.77;;;31.20;66.40;;;;;;5121852;27;20027;-79
2022/08/02 12:04:06;;;;;;;3.83;1.13;;;31.40;62.10;;;;;;5123204;27;20055;-78
2022/08/02 12:06:33;;;;;;;1.83;0.70;;;31.40;62.90;;;;;;5129530;27;20023;-79
2022/08/02 12:09:12;;;;;;;5.18;0.73;;;31.50;64.80;;;;;;5124538;27;20578;-77
2022/08/02 12:11:38;;;;;;;1.95;0.75;;;31.50;63.00;;;;;;5129667;27;20085;-78
2022/08/02 12:14:04;;;;;;;3.10;0.77;;;31.50;61.00;;;;;;5125748;27;20434;-78
2022/08/02 12:19:22;;;;;;;4.57;0.60;;;31.50;60.40;;;;;;5130568;27;20038;-79
2022/08/02 12:22:08;;;;;;;4.75;0.70;;;31.40;61.30;;;;;;5126220;27;20088;-79
2022/08/02 12:24:33;;;;;;;2.15;0.60;;;31.30;62.20;;;;;;5117299;27;20035;-78
2022/08/02 12:26:59;;;;;;;1.52;0.60;;;31.30;61.80;;;;;;5129852;27;20619;-78
2022/08/02 12:29:32;;;;;;;1.35;0.63;;;31.40;63.00;;;;;;5119951;27;20023;-78
2022/08/02 12:31:59;;;;;;;1.70;0.50;;;31.50;60.00;;;;;;5120495;27;20043;-77
2022/08/02 12:34:26;;;;;;;3.25;0.80;;;31.60;61.00;;;;;;5127562;27;20050;-78
2022/08/02 12:37:09;;;;;;;1.75;0.70;;;31.70;61.60;;;;;;5127394;27;20030;-78
2022/08/02 12:39:48;;;;;;;1.33;0.60;;;31.70;60.10;;;;;;5121582;27;20023;-78
2022/08/02 12:42:14;;;;;;;5.18;0.65;;;31.70;61.40;;;;;;5126376;27;20023;-78
2022/08/02 12:44:54;;;;;;;1.45;0.80;;;31.80;60.20;;;;;;5126440;27;20072;-78
2022/08/02 12:47:20;;;;;;;3.10;0.98;;;31.80;60.10;;;;;;5107776;28;20118;-78
2022/08/02 12:50:06;;;;;;;1.63;0.57;;;31.90;59.20;;;;;;5118906;27;20015;-78
2022/08/02 12:52:32;;;;;;;2.15;0.77;;;32.00;60.10;;;;;;5121522;27;20035;-78
2022/08/02 12:54:57;;;;;;;2.63;0.73;;;32.10;59.60;;;;;;5118975;27;20023;-77
2022/08/02 12:57:23;;;;;;;3.17;0.70;;;32.20;60.10;;;;;;5121923;27;20035;-78